sensor_id;sensor_type;location;lat;lon;timestamp;P1;durP1;ratioP1;P2;durP2;ratioP2
5191;SDS011;2615;44.524;11.284;2024-03-08T00:00:38;12.10;;;6.33;;
5191;SDS011;2615;44.524;11.284;2024-03-08T00:03:06;11.53;;;5.80;;
5191;SDS011;2615;44.524;11.284;2024-03-08T00:05:38;9.27;;;6.17;;
5191;SDS011;2615;44.524;11.284;2024-03-08T00:08:06;9.53;;;5.47;;
5191;SDS011;2615;44.524;11.284;2024-03-08T00:10:36;12.27;;;6.00;;
5191;SDS011;2615;44.524;11.284;2024-03-08T00:13:05;8.20;;;6.13;;
5191;SDS011;2615;44.524;11.284;2024-03-08T00:15:33;16.60;;;5.87;;
5191;SDS011;2615;44.524;11.284;2024-03-08T00:18:02;9.67;;;5.63;;
5191;SDS011;2615;44.524;11.284;2024-03-08T00:20:30;9.50;;;6.73;;
5191;SDS011;2615;44.524;11.284;2024-03-08T00:23:00;10.07;;;6.17;;
5191;SDS011;2615;44.524;11.284;2024-03-08T00:25:29;8.47;;;6.00;;
5191;SDS011;2615;44.524;11.284;2024-03-08T00:27:57;9.90;;;5.70;;
5191;SDS011;2615;44.524;11.284;2024-03-08T00:30:26;10.83;;;6.80;;
5191;SDS011;2615;44.524;11.284;2024-03-08T00:32:54;10.20;;;6.80;;
5191;SDS011;2615;44.524;11.284;2024-03-08T00:35:23;11.60;;;7.50;;
5191;SDS011;2615;44.524;11.284;2024-03-08T00:37:51;11.40;;;6.83;;
5191;SDS011;2615;44.524;11.284;2024-03-08T00:40:24;14.37;;;6.90;;
5191;SDS011;2615;44.524;11.284;2024-03-08T00:42:52;8.37;;;5.87;;
5191;SDS011;2615;44.524;11.284;2024-03-08T00:45:20;9.80;;;6.47;;
5191;SDS011;2615;44.524;11.284;2024-03-08T00:47:50;8.00;;;6.23;;
5191;SDS011;2615;44.524;11.284;2024-03-08T00:50:18;10.73;;;6.03;;
5191;SDS011;2615;44.524;11.284;2024-03-08T00:52:46;8.47;;;6.10;;
5191;SDS011;2615;44.524;11.284;2024-03-08T00:55:14;14.23;;;6.80;;
5191;SDS011;2615;44.524;11.284;2024-03-08T00:57:45;10.33;;;6.10;;
5191;SDS011;2615;44.524;11.284;2024-03-08T01:00:13;9.03;;;7.00;;
5191;SDS011;2615;44.524;11.284;2024-03-08T01:02:42;9.77;;;6.40;;
5191;SDS011;2615;44.524;11.284;2024-03-08T01:05:10;8.80;;;6.50;;
5191;SDS011;2615;44.524;11.284;2024-03-08T01:07:38;10.30;;;6.70;;
5191;SDS011;2615;44.524;11.284;2024-03-08T01:10:07;10.40;;;6.90;;
5191;SDS011;2615;44.524;11.284;2024-03-08T01:12:37;13.00;;;6.53;;
5191;SDS011;2615;44.524;11.284;2024-03-08T01:15:07;9.17;;;5.70;;
5191;SDS011;2615;44.524;11.284;2024-03-08T01:17:36;10.83;;;6.33;;
5191;SDS011;2615;44.524;11.284;2024-03-08T01:20:05;8.43;;;6.33;;
5191;SDS011;2615;44.524;11.284;2024-03-08T01:22:37;8.50;;;6.20;;
5191;SDS011;2615;44.524;11.284;2024-03-08T01:25:06;10.80;;;6.07;;
5191;SDS011;2615;44.524;11.284;2024-03-08T01:27:35;11.63;;;6.53;;
5191;SDS011;2615;44.524;11.284;2024-03-08T01:30:03;7.37;;;5.60;;
5191;SDS011;2615;44.524;11.284;2024-03-08T01:32:34;10.40;;;6.40;;
5191;SDS011;2615;44.524;11.284;2024-03-08T01:35:02;11.70;;;5.70;;
5191;SDS011;2615;44.524;11.284;2024-03-08T01:37:31;15.50;;;6.30;;
5191;SDS011;2615;44.524;11.284;2024-03-08T01:39:59;8.67;;;6.80;;
5191;SDS011;2615;44.524;11.284;2024-03-08T01:42:27;13.07;;;7.20;;
5191;SDS011;2615;44.524;11.284;2024-03-08T01:44:55;9.07;;;6.20;;
5191;SDS011;2615;44.524;11.284;2024-03-08T01:47:24;7.20;;;5.73;;
5191;SDS011;2615;44.524;11.284;2024-03-08T01:49:54;7.83;;;6.43;;
5191;SDS011;2615;44.524;11.284;2024-03-08T01:52:22;10.27;;;6.53;;
5191;SDS011;2615;44.524;11.284;2024-03-08T01:54:51;7.93;;;6.00;;
5191;SDS011;2615;44.524;11.284;2024-03-08T01:57:20;13.87;;;6.13;;
5191;SDS011;2615;44.524;11.284;2024-03-08T01:59:49;8.70;;;5.63;;
5191;SDS011;2615;44.524;11.284;2024-03-08T02:02:17;11.30;;;6.90;;
5191;SDS011;2615;44.524;11.284;2024-03-08T02:04:46;10.00;;;5.83;;
5191;SDS011;2615;44.524;11.284;2024-03-08T02:07:16;9.67;;;6.00;;
5191;SDS011;2615;44.524;11.284;2024-03-08T02:09:44;9.27;;;5.50;;
5191;SDS011;2615;44.524;11.284;2024-03-08T02:12:13;8.10;;;6.90;;
5191;SDS011;2615;44.524;11.284;2024-03-08T02:14:41;13.70;;;6.10;;
5191;SDS011;2615;44.524;11.284;2024-03-08T02:17:10;8.23;;;5.37;;
5191;SDS011;2615;44.524;11.284;2024-03-08T02:19:39;10.47;;;5.57;;
5191;SDS011;2615;44.524;11.284;2024-03-08T02:22:09;15.53;;;6.00;;
5191;SDS011;2615;44.524;11.284;2024-03-08T02:24:37;8.13;;;6.30;;
5191;SDS011;2615;44.524;11.284;2024-03-08T02:27:05;8.93;;;5.80;;
5191;SDS011;2615;44.524;11.284;2024-03-08T02:29:34;9.17;;;5.60;;
5191;SDS011;2615;44.524;11.284;2024-03-08T02:32:02;11.73;;;5.83;;
5191;SDS011;2615;44.524;11.284;2024-03-08T02:34:31;7.37;;;4.93;;
5191;SDS011;2615;44.524;11.284;2024-03-08T02:36:59;8.90;;;4.87;;
5191;SDS011;2615;44.524;11.284;2024-03-08T02:39:28;8.40;;;5.50;;
5191;SDS011;2615;44.524;11.284;2024-03-08T02:41:58;10.40;;;5.13;;
5191;SDS011;2615;44.524;11.284;2024-03-08T02:44:26;8.60;;;5.40;;
5191;SDS011;2615;44.524;11.284;2024-03-08T02:46:55;8.90;;;5.53;;
5191;SDS011;2615;44.524;11.284;2024-03-08T02:49:23;9.27;;;6.17;;
5191;SDS011;2615;44.524;11.284;2024-03-08T02:51:51;9.57;;;4.87;;
5191;SDS011;2615;44.524;11.284;2024-03-08T02:54:19;7.37;;;6.13;;
5191;SDS011;2615;44.524;11.284;2024-03-08T02:56:49;6.53;;;5.00;;
5191;SDS011;2615;44.524;11.284;2024-03-08T02:59:17;9.40;;;6.40;;
5191;SDS011;2615;44.524;11.284;2024-03-08T03:01:46;7.67;;;5.80;;
5191;SDS011;2615;44.524;11.284;2024-03-08T03:04:14;7.80;;;6.63;;
5191;SDS011;2615;44.524;11.284;2024-03-08T03:06:42;9.77;;;6.70;;
5191;SDS011;2615;44.524;11.284;2024-03-08T03:09:10;15.80;;;7.23;;
5191;SDS011;2615;44.524;11.284;2024-03-08T03:11:39;10.13;;;6.33;;
5191;SDS011;2615;44.524;11.284;2024-03-08T03:14:08;7.73;;;5.70;;
5191;SDS011;2615;44.524;11.284;2024-03-08T03:16:36;8.77;;;6.83;;
5191;SDS011;2615;44.524;11.284;2024-03-08T03:19:05;10.37;;;5.50;;
5191;SDS011;2615;44.524;11.284;2024-03-08T03:21:34;12.73;;;6.00;;
5191;SDS011;2615;44.524;11.284;2024-03-08T03:24:04;8.40;;;6.27;;
5191;SDS011;2615;44.524;11.284;2024-03-08T03:26:37;11.60;;;6.50;;
5191;SDS011;2615;44.524;11.284;2024-03-08T03:29:08;11.50;;;6.17;;
5191;SDS011;2615;44.524;11.284;2024-03-08T03:31:37;8.13;;;6.30;;
5191;SDS011;2615;44.524;11.284;2024-03-08T03:34:06;14.53;;;7.83;;
5191;SDS011;2615;44.524;11.284;2024-03-08T03:36:35;16.57;;;6.27;;
5191;SDS011;2615;44.524;11.284;2024-03-08T03:39:04;9.40;;;6.20;;
5191;SDS011;2615;44.524;11.284;2024-03-08T03:41:37;12.37;;;6.87;;
5191;SDS011;2615;44.524;11.284;2024-03-08T03:44:06;13.03;;;6.80;;
5191;SDS011;2615;44.524;11.284;2024-03-08T03:46:35;16.77;;;7.70;;
5191;SDS011;2615;44.524;11.284;2024-03-08T03:49:03;12.77;;;7.10;;
5191;SDS011;2615;44.524;11.284;2024-03-08T03:51:31;18.80;;;8.43;;
5191;SDS011;2615;44.524;11.284;2024-03-08T03:54:01;12.53;;;8.10;;
5191;SDS011;2615;44.524;11.284;2024-03-08T03:56:30;13.03;;;7.93;;
5191;SDS011;2615;44.524;11.284;2024-03-08T03:58:58;14.57;;;8.50;;
5191;SDS011;2615;44.524;11.284;2024-03-08T04:01:26;12.37;;;7.80;;
5191;SDS011;2615;44.524;11.284;2024-03-08T04:03:57;11.90;;;7.60;;
5191;SDS011;2615;44.524;11.284;2024-03-08T04:06:25;8.27;;;7.07;;
5191;SDS011;2615;44.524;11.284;2024-03-08T04:08:53;11.20;;;7.30;;
5191;SDS011;2615;44.524;11.284;2024-03-08T04:11:21;23.17;;;7.60;;
5191;SDS011;2615;44.524;11.284;2024-03-08T04:13:50;8.60;;;6.10;;
5191;SDS011;2615;44.524;11.284;2024-03-08T04:16:19;11.33;;;7.00;;
5191;SDS011;2615;44.524;11.284;2024-03-08T04:18:47;10.27;;;7.00;;
5191;SDS011;2615;44.524;11.284;2024-03-08T04:21:17;13.67;;;8.70;;
5191;SDS011;2615;44.524;11.284;2024-03-08T04:23:46;9.40;;;6.07;;
5191;SDS011;2615;44.524;11.284;2024-03-08T04:26:14;10.93;;;6.60;;
5191;SDS011;2615;44.524;11.284;2024-03-08T04:28:45;11.63;;;6.70;;
5191;SDS011;2615;44.524;11.284;2024-03-08T04:31:13;9.50;;;6.70;;
5191;SDS011;2615;44.524;11.284;2024-03-08T04:33:42;7.60;;;5.70;;
5191;SDS011;2615;44.524;11.284;2024-03-08T04:36:11;10.53;;;6.10;;
5191;SDS011;2615;44.524;11.284;2024-03-08T04:38:41;10.20;;;6.33;;
5191;SDS011;2615;44.524;11.284;2024-03-08T04:41:09;7.80;;;6.60;;
5191;SDS011;2615;44.524;11.284;2024-03-08T04:43:38;9.00;;;6.20;;
5191;SDS011;2615;44.524;11.284;2024-03-08T04:46:06;12.10;;;6.67;;
5191;SDS011;2615;44.524;11.284;2024-03-08T04:48:35;7.77;;;5.60;;
5191;SDS011;2615;44.524;11.284;2024-03-08T04:51:04;12.67;;;6.20;;
5191;SDS011;2615;44.524;11.284;2024-03-08T04:53:32;16.53;;;6.77;;
5191;SDS011;2615;44.524;11.284;2024-03-08T04:56:02;14.77;;;5.73;;
5191;SDS011;2615;44.524;11.284;2024-03-08T04:58:32;8.53;;;7.60;;
5191;SDS011;2615;44.524;11.284;2024-03-08T05:01:03;9.93;;;5.97;;
5191;SDS011;2615;44.524;11.284;2024-03-08T05:03:31;8.17;;;6.10;;
5191;SDS011;2615;44.524;11.284;2024-03-08T05:05:59;10.50;;;7.63;;
5191;SDS011;2615;44.524;11.284;2024-03-08T05:08:28;10.30;;;5.67;;
5191;SDS011;2615;44.524;11.284;2024-03-08T05:10:56;11.50;;;6.53;;
5191;SDS011;2615;44.524;11.284;2024-03-08T05:13:26;9.47;;;6.00;;
5191;SDS011;2615;44.524;11.284;2024-03-08T05:15:54;8.23;;;5.53;;
5191;SDS011;2615;44.524;11.284;2024-03-08T05:18:24;8.23;;;5.97;;
5191;SDS011;2615;44.524;11.284;2024-03-08T05:20:55;13.07;;;7.33;;
5191;SDS011;2615;44.524;11.284;2024-03-08T05:23:23;9.53;;;5.83;;
5191;SDS011;2615;44.524;11.284;2024-03-08T05:25:51;9.67;;;6.20;;
5191;SDS011;2615;44.524;11.284;2024-03-08T05:28:19;12.70;;;5.90;;
5191;SDS011;2615;44.524;11.284;2024-03-08T05:30:49;13.13;;;5.63;;
5191;SDS011;2615;44.524;11.284;2024-03-08T05:33:17;8.93;;;5.20;;
5191;SDS011;2615;44.524;11.284;2024-03-08T05:35:45;19.53;;;6.50;;
5191;SDS011;2615;44.524;11.284;2024-03-08T05:38:15;13.33;;;6.83;;
5191;SDS011;2615;44.524;11.284;2024-03-08T05:40:43;10.40;;;6.33;;
5191;SDS011;2615;44.524;11.284;2024-03-08T05:43:11;17.83;;;6.83;;
5191;SDS011;2615;44.524;11.284;2024-03-08T05:45:39;9.97;;;6.30;;
5191;SDS011;2615;44.524;11.284;2024-03-08T05:48:09;13.73;;;6.10;;
5191;SDS011;2615;44.524;11.284;2024-03-08T05:50:39;9.23;;;5.57;;
5191;SDS011;2615;44.524;11.284;2024-03-08T05:53:08;16.10;;;6.30;;
5191;SDS011;2615;44.524;11.284;2024-03-08T05:55:36;43.27;;;7.80;;
5191;SDS011;2615;44.524;11.284;2024-03-08T05:58:04;7.10;;;5.47;;
5191;SDS011;2615;44.524;11.284;2024-03-08T06:00:34;9.60;;;6.60;;
5191;SDS011;2615;44.524;11.284;2024-03-08T06:03:03;12.00;;;6.00;;
5191;SDS011;2615;44.524;11.284;2024-03-08T06:05:33;13.83;;;6.97;;
5191;SDS011;2615;44.524;11.284;2024-03-08T06:08:01;10.67;;;6.40;;
5191;SDS011;2615;44.524;11.284;2024-03-08T06:10:30;14.00;;;5.93;;
5191;SDS011;2615;44.524;11.284;2024-03-08T06:12:59;13.90;;;7.20;;
5191;SDS011;2615;44.524;11.284;2024-03-08T06:15:27;16.57;;;7.93;;
5191;SDS011;2615;44.524;11.284;2024-03-08T06:17:57;8.23;;;4.87;;
5191;SDS011;2615;44.524;11.284;2024-03-08T06:20:25;12.03;;;6.37;;
5191;SDS011;2615;44.524;11.284;2024-03-08T06:22:54;9.93;;;5.80;;
5191;SDS011;2615;44.524;11.284;2024-03-08T06:25:23;9.60;;;6.20;;
5191;SDS011;2615;44.524;11.284;2024-03-08T06:27:51;8.10;;;6.27;;
5191;SDS011;2615;44.524;11.284;2024-03-08T06:30:19;8.23;;;5.90;;
5191;SDS011;2615;44.524;11.284;2024-03-08T06:32:48;9.60;;;6.53;;
5191;SDS011;2615;44.524;11.284;2024-03-08T06:35:16;8.20;;;6.20;;
5191;SDS011;2615;44.524;11.284;2024-03-08T06:37:46;8.27;;;5.33;;
5191;SDS011;2615;44.524;11.284;2024-03-08T06:40:16;11.40;;;6.30;;
5191;SDS011;2615;44.524;11.284;2024-03-08T06:42:44;20.87;;;6.10;;
5191;SDS011;2615;44.524;11.284;2024-03-08T06:45:13;13.73;;;6.67;;
5191;SDS011;2615;44.524;11.284;2024-03-08T06:47:45;9.93;;;5.67;;
5191;SDS011;2615;44.524;11.284;2024-03-08T06:50:14;9.97;;;6.40;;
5191;SDS011;2615;44.524;11.284;2024-03-08T06:52:42;9.90;;;5.30;;
5191;SDS011;2615;44.524;11.284;2024-03-08T06:55:15;8.13;;;5.87;;
5191;SDS011;2615;44.524;11.284;2024-03-08T06:57:44;14.90;;;6.20;;
5191;SDS011;2615;44.524;11.284;2024-03-08T07:00:12;16.63;;;6.80;;
5191;SDS011;2615;44.524;11.284;2024-03-08T07:02:45;10.90;;;7.23;;
5191;SDS011;2615;44.524;11.284;2024-03-08T07:05:15;15.20;;;5.70;;
5191;SDS011;2615;44.524;11.284;2024-03-08T07:07:43;13.80;;;6.10;;
5191;SDS011;2615;44.524;11.284;2024-03-08T07:10:16;7.97;;;5.77;;
5191;SDS011;2615;44.524;11.284;2024-03-08T07:12:45;11.40;;;7.53;;
5191;SDS011;2615;44.524;11.284;2024-03-08T07:15:14;13.33;;;8.47;;
5191;SDS011;2615;44.524;11.284;2024-03-08T07:17:42;15.70;;;9.30;;
5191;SDS011;2615;44.524;11.284;2024-03-08T07:20:12;16.73;;;9.47;;
5191;SDS011;2615;44.524;11.284;2024-03-08T07:22:41;22.83;;;13.77;;
5191;SDS011;2615;44.524;11.284;2024-03-08T07:25:15;19.60;;;13.03;;
5191;SDS011;2615;44.524;11.284;2024-03-08T07:27:50;22.53;;;13.60;;
5191;SDS011;2615;44.524;11.284;2024-03-08T07:30:19;23.57;;;13.83;;
5191;SDS011;2615;44.524;11.284;2024-03-08T07:33:05;18.77;;;14.03;;
5191;SDS011;2615;44.524;11.284;2024-03-08T07:35:34;25.40;;;17.67;;
5191;SDS011;2615;44.524;11.284;2024-03-08T07:38:04;28.33;;;16.57;;
5191;SDS011;2615;44.524;11.284;2024-03-08T07:40:33;25.37;;;15.80;;
5191;SDS011;2615;44.524;11.284;2024-03-08T07:43:03;28.60;;;16.53;;
5191;SDS011;2615;44.524;11.284;2024-03-08T07:45:31;27.80;;;16.53;;
5191;SDS011;2615;44.524;11.284;2024-03-08T07:47:59;25.30;;;16.13;;
5191;SDS011;2615;44.524;11.284;2024-03-08T07:50:29;33.90;;;16.83;;
5191;SDS011;2615;44.524;11.284;2024-03-08T07:52:59;29.97;;;16.33;;
5191;SDS011;2615;44.524;11.284;2024-03-08T07:55:29;25.70;;;16.30;;
5191;SDS011;2615;44.524;11.284;2024-03-08T07:57:59;22.67;;;15.43;;
5191;SDS011;2615;44.524;11.284;2024-03-08T08:00:27;22.53;;;15.23;;
5191;SDS011;2615;44.524;11.284;2024-03-08T08:02:57;32.83;;;16.80;;
5191;SDS011;2615;44.524;11.284;2024-03-08T08:05:25;28.70;;;16.27;;
5191;SDS011;2615;44.524;11.284;2024-03-08T08:07:53;34.57;;;18.30;;
5191;SDS011;2615;44.524;11.284;2024-03-08T08:10:22;26.87;;;16.00;;
5191;SDS011;2615;44.524;11.284;2024-03-08T08:12:52;31.80;;;19.60;;
5191;SDS011;2615;44.524;11.284;2024-03-08T08:15:21;35.93;;;18.30;;
5191;SDS011;2615;44.524;11.284;2024-03-08T08:17:50;33.43;;;19.73;;
5191;SDS011;2615;44.524;11.284;2024-03-08T08:20:19;40.40;;;18.70;;
5191;SDS011;2615;44.524;11.284;2024-03-08T08:22:48;31.27;;;18.83;;
5191;SDS011;2615;44.524;11.284;2024-03-08T08:25:16;26.30;;;17.70;;
5191;SDS011;2615;44.524;11.284;2024-03-08T08:27:47;27.30;;;18.87;;
5191;SDS011;2615;44.524;11.284;2024-03-08T08:30:15;27.23;;;19.20;;
5191;SDS011;2615;44.524;11.284;2024-03-08T08:32:45;32.20;;;19.50;;
5191;SDS011;2615;44.524;11.284;2024-03-08T08:35:15;35.23;;;18.33;;
5191;SDS011;2615;44.524;11.284;2024-03-08T08:37:46;33.43;;;20.30;;
5191;SDS011;2615;44.524;11.284;2024-03-08T08:40:14;26.90;;;17.93;;
5191;SDS011;2615;44.524;11.284;2024-03-08T08:42:44;28.70;;;18.90;;
5191;SDS011;2615;44.524;11.284;2024-03-08T08:45:15;37.90;;;19.67;;
5191;SDS011;2615;44.524;11.284;2024-03-08T08:47:52;33.77;;;20.87;;
5191;SDS011;2615;44.524;11.284;2024-03-08T08:50:21;36.00;;;22.20;;
5191;SDS011;2615;44.524;11.284;2024-03-08T08:52:51;34.13;;;20.00;;
5191;SDS011;2615;44.524;11.284;2024-03-08T08:55:20;30.40;;;18.70;;
5191;SDS011;2615;44.524;11.284;2024-03-08T08:57:51;27.60;;;16.60;;
5191;SDS011;2615;44.524;11.284;2024-03-08T09:00:20;31.60;;;17.80;;
5191;SDS011;2615;44.524;11.284;2024-03-08T09:02:55;26.03;;;18.60;;
5191;SDS011;2615;44.524;11.284;2024-03-08T09:05:24;29.83;;;20.13;;
5191;SDS011;2615;44.524;11.284;2024-03-08T09:07:53;31.50;;;18.70;;
5191;SDS011;2615;44.524;11.284;2024-03-08T09:10:22;32.57;;;18.13;;
5191;SDS011;2615;44.524;11.284;2024-03-08T09:12:56;29.30;;;17.93;;
5191;SDS011;2615;44.524;11.284;2024-03-08T09:15:26;31.37;;;18.10;;
5191;SDS011;2615;44.524;11.284;2024-03-08T09:17:57;25.60;;;17.33;;
5191;SDS011;2615;44.524;11.284;2024-03-08T09:20:25;28.20;;;18.10;;
5191;SDS011;2615;44.524;11.284;2024-03-08T09:22:54;28.40;;;18.13;;
5191;SDS011;2615;44.524;11.284;2024-03-08T09:25:22;32.37;;;19.47;;
5191;SDS011;2615;44.524;11.284;2024-03-08T09:27:51;28.07;;;17.50;;
5191;SDS011;2615;44.524;11.284;2024-03-08T09:30:20;29.43;;;19.07;;
5191;SDS011;2615;44.524;11.284;2024-03-08T09:32:49;26.47;;;18.60;;
5191;SDS011;2615;44.524;11.284;2024-03-08T09:35:19;31.40;;;19.47;;
5191;SDS011;2615;44.524;11.284;2024-03-08T09:37:48;33.17;;;20.83;;
5191;SDS011;2615;44.524;11.284;2024-03-08T09:40:18;29.67;;;21.33;;
5191;SDS011;2615;44.524;11.284;2024-03-08T09:42:47;31.83;;;19.67;;
5191;SDS011;2615;44.524;11.284;2024-03-08T09:45:17;31.80;;;21.90;;
5191;SDS011;2615;44.524;11.284;2024-03-08T09:47:48;30.13;;;20.70;;
5191;SDS011;2615;44.524;11.284;2024-03-08T09:50:16;31.23;;;18.73;;
5191;SDS011;2615;44.524;11.284;2024-03-08T09:52:47;28.03;;;17.70;;
5191;SDS011;2615;44.524;11.284;2024-03-08T09:55:17;29.50;;;17.50;;
5191;SDS011;2615;44.524;11.284;2024-03-08T09:57:49;33.97;;;19.87;;
5191;SDS011;2615;44.524;11.284;2024-03-08T10:00:37;23.37;;;16.77;;
5191;SDS011;2615;44.524;11.284;2024-03-08T10:03:05;24.63;;;15.70;;
5191;SDS011;2615;44.524;11.284;2024-03-08T10:05:33;26.03;;;17.20;;
5191;SDS011;2615;44.524;11.284;2024-03-08T10:08:03;27.67;;;15.33;;
5191;SDS011;2615;44.524;11.284;2024-03-08T10:10:33;24.07;;;16.03;;
5191;SDS011;2615;44.524;11.284;2024-03-08T10:13:02;27.03;;;16.53;;
5191;SDS011;2615;44.524;11.284;2024-03-08T10:15:32;25.00;;;15.20;;
5191;SDS011;2615;44.524;11.284;2024-03-08T10:18:01;20.60;;;15.17;;
5191;SDS011;2615;44.524;11.284;2024-03-08T10:20:30;22.00;;;14.73;;
5191;SDS011;2615;44.524;11.284;2024-03-08T10:23:00;47.93;;;15.90;;
5191;SDS011;2615;44.524;11.284;2024-03-08T10:25:38;21.53;;;14.77;;
5191;SDS011;2615;44.524;11.284;2024-03-08T10:28:06;22.60;;;15.10;;
5191;SDS011;2615;44.524;11.284;2024-03-08T10:30:35;24.43;;;15.50;;
5191;SDS011;2615;44.524;11.284;2024-03-08T10:33:04;28.53;;;14.13;;
5191;SDS011;2615;44.524;11.284;2024-03-08T10:35:33;17.40;;;13.83;;
5191;SDS011;2615;44.524;11.284;2024-03-08T10:38:01;24.33;;;14.53;;
5191;SDS011;2615;44.524;11.284;2024-03-08T10:40:34;28.67;;;14.40;;
5191;SDS011;2615;44.524;11.284;2024-03-08T10:43:08;22.70;;;13.90;;
5191;SDS011;2615;44.524;11.284;2024-03-08T10:45:55;20.37;;;13.87;;
5191;SDS011;2615;44.524;11.284;2024-03-08T10:48:31;22.03;;;12.67;;
5191;SDS011;2615;44.524;11.284;2024-03-08T10:51:05;18.80;;;12.70;;
5191;SDS011;2615;44.524;11.284;2024-03-08T10:53:37;19.17;;;12.80;;
5191;SDS011;2615;44.524;11.284;2024-03-08T10:56:08;16.33;;;12.07;;
5191;SDS011;2615;44.524;11.284;2024-03-08T10:58:38;17.50;;;13.00;;
5191;SDS011;2615;44.524;11.284;2024-03-08T11:01:07;19.83;;;12.10;;
5191;SDS011;2615;44.524;11.284;2024-03-08T11:03:46;19.20;;;12.47;;
5191;SDS011;2615;44.524;11.284;2024-03-08T11:06:22;16.70;;;10.40;;
5191;SDS011;2615;44.524;11.284;2024-03-08T11:08:56;15.10;;;10.93;;
5191;SDS011;2615;44.524;11.284;2024-03-08T11:11:26;16.70;;;11.00;;
5191;SDS011;2615;44.524;11.284;2024-03-08T11:14:01;19.23;;;10.17;;
5191;SDS011;2615;44.524;11.284;2024-03-08T11:16:37;10.37;;;8.27;;
5191;SDS011;2615;44.524;11.284;2024-03-08T11:19:23;22.93;;;9.17;;
5191;SDS011;2615;44.524;11.284;2024-03-08T11:21:57;11.27;;;7.80;;
5191;SDS011;2615;44.524;11.284;2024-03-08T11:24:36;9.83;;;6.47;;
5191;SDS011;2615;44.524;11.284;2024-03-08T11:27:07;11.83;;;7.00;;
5191;SDS011;2615;44.524;11.284;2024-03-08T11:29:38;11.93;;;7.47;;
5191;SDS011;2615;44.524;11.284;2024-03-08T11:32:09;14.33;;;6.60;;
5191;SDS011;2615;44.524;11.284;2024-03-08T11:34:39;11.57;;;7.03;;
5191;SDS011;2615;44.524;11.284;2024-03-08T11:37:12;14.03;;;6.50;;
5191;SDS011;2615;44.524;11.284;2024-03-08T11:39:46;12.23;;;7.20;;
5191;SDS011;2615;44.524;11.284;2024-03-08T11:42:15;16.60;;;8.80;;
5191;SDS011;2615;44.524;11.284;2024-03-08T11:44:45;10.93;;;7.53;;
5191;SDS011;2615;44.524;11.284;2024-03-08T11:47:14;10.53;;;7.33;;
5191;SDS011;2615;44.524;11.284;2024-03-08T11:49:43;12.13;;;7.00;;
5191;SDS011;2615;44.524;11.284;2024-03-08T11:52:14;11.97;;;8.00;;
5191;SDS011;2615;44.524;11.284;2024-03-08T11:54:47;12.07;;;7.63;;
5191;SDS011;2615;44.524;11.284;2024-03-08T11:57:21;9.90;;;3.70;;
5191;SDS011;2615;44.524;11.284;2024-03-08T11:59:51;14.00;;;8.30;;
5191;SDS011;2615;44.524;11.284;2024-03-08T12:02:23;12.67;;;8.00;;
5191;SDS011;2615;44.524;11.284;2024-03-08T12:04:55;12.50;;;7.70;;
5191;SDS011;2615;44.524;11.284;2024-03-08T12:07:26;9.50;;;6.73;;
5191;SDS011;2615;44.524;11.284;2024-03-08T12:12:46;11.23;;;5.73;;
5191;SDS011;2615;44.524;11.284;2024-03-08T12:15:17;9.33;;;5.80;;
5191;SDS011;2615;44.524;11.284;2024-03-08T12:17:47;9.67;;;6.57;;
5191;SDS011;2615;44.524;11.284;2024-03-08T12:20:17;15.00;;;8.10;;
5191;SDS011;2615;44.524;11.284;2024-03-08T12:22:48;20.07;;;6.50;;
5191;SDS011;2615;44.524;11.284;2024-03-08T12:25:19;11.30;;;7.47;;
5191;SDS011;2615;44.524;11.284;2024-03-08T12:27:48;10.63;;;7.70;;
5191;SDS011;2615;44.524;11.284;2024-03-08T12:30:21;11.20;;;6.90;;
5191;SDS011;2615;44.524;11.284;2024-03-08T12:32:53;8.70;;;4.60;;
5191;SDS011;2615;44.524;11.284;2024-03-08T12:35:25;7.53;;;5.13;;
5191;SDS011;2615;44.524;11.284;2024-03-08T12:37:55;10.20;;;6.60;;
5191;SDS011;2615;44.524;11.284;2024-03-08T12:40:27;15.40;;;8.07;;
5191;SDS011;2615;44.524;11.284;2024-03-08T12:42:58;20.20;;;8.37;;
5191;SDS011;2615;44.524;11.284;2024-03-08T12:45:28;12.07;;;7.33;;
5191;SDS011;2615;44.524;11.284;2024-03-08T12:47:56;13.47;;;8.00;;
5191;SDS011;2615;44.524;11.284;2024-03-08T12:50:25;18.10;;;9.40;;
5191;SDS011;2615;44.524;11.284;2024-03-08T12:52:53;13.27;;;8.27;;
5191;SDS011;2615;44.524;11.284;2024-03-08T12:55:22;13.23;;;7.73;;
5191;SDS011;2615;44.524;11.284;2024-03-08T12:57:50;13.03;;;8.57;;
5191;SDS011;2615;44.524;11.284;2024-03-08T13:00:19;14.67;;;8.43;;
5191;SDS011;2615;44.524;11.284;2024-03-08T13:02:51;19.00;;;9.30;;
5191;SDS011;2615;44.524;11.284;2024-03-08T13:05:19;12.77;;;8.10;;
5191;SDS011;2615;44.524;11.284;2024-03-08T13:07:48;12.83;;;7.70;;
5191;SDS011;2615;44.524;11.284;2024-03-08T13:10:16;12.83;;;8.63;;
5191;SDS011;2615;44.524;11.284;2024-03-08T13:12:46;12.77;;;8.07;;
5191;SDS011;2615;44.524;11.284;2024-03-08T13:15:19;10.90;;;8.57;;
5191;SDS011;2615;44.524;11.284;2024-03-08T13:17:47;14.80;;;8.13;;
5191;SDS011;2615;44.524;11.284;2024-03-08T13:20:17;12.57;;;8.43;;
5191;SDS011;2615;44.524;11.284;2024-03-08T13:22:56;11.30;;;8.40;;
5191;SDS011;2615;44.524;11.284;2024-03-08T13:25:28;12.10;;;7.87;;
5191;SDS011;2615;44.524;11.284;2024-03-08T13:27:56;14.33;;;8.60;;
5191;SDS011;2615;44.524;11.284;2024-03-08T13:30:27;11.37;;;7.97;;
5191;SDS011;2615;44.524;11.284;2024-03-08T13:32:57;11.67;;;7.83;;
5191;SDS011;2615;44.524;11.284;2024-03-08T13:35:26;15.47;;;8.33;;
5191;SDS011;2615;44.524;11.284;2024-03-08T13:37:56;11.30;;;8.00;;
5191;SDS011;2615;44.524;11.284;2024-03-08T13:40:25;13.73;;;8.73;;
5191;SDS011;2615;44.524;11.284;2024-03-08T13:42:53;18.20;;;8.93;;
5191;SDS011;2615;44.524;11.284;2024-03-08T13:45:21;13.80;;;8.97;;
5191;SDS011;2615;44.524;11.284;2024-03-08T13:47:51;12.20;;;8.23;;
5191;SDS011;2615;44.524;11.284;2024-03-08T13:50:21;14.03;;;8.57;;
5191;SDS011;2615;44.524;11.284;2024-03-08T13:52:51;16.60;;;8.03;;
5191;SDS011;2615;44.524;11.284;2024-03-08T13:55:22;15.87;;;9.27;;
5191;SDS011;2615;44.524;11.284;2024-03-08T13:57:52;11.13;;;7.57;;
5191;SDS011;2615;44.524;11.284;2024-03-08T14:00:21;12.27;;;7.70;;
5191;SDS011;2615;44.524;11.284;2024-03-08T14:02:51;13.30;;;9.73;;
5191;SDS011;2615;44.524;11.284;2024-03-08T14:05:20;12.70;;;7.80;;
5191;SDS011;2615;44.524;11.284;2024-03-08T14:07:49;14.63;;;9.23;;
5191;SDS011;2615;44.524;11.284;2024-03-08T14:10:21;11.93;;;8.10;;
5191;SDS011;2615;44.524;11.284;2024-03-08T14:12:50;14.13;;;8.40;;
5191;SDS011;2615;44.524;11.284;2024-03-08T14:15:18;15.33;;;8.47;;
5191;SDS011;2615;44.524;11.284;2024-03-08T14:17:51;14.30;;;9.00;;
5191;SDS011;2615;44.524;11.284;2024-03-08T14:20:20;11.80;;;8.20;;
5191;SDS011;2615;44.524;11.284;2024-03-08T14:22:53;15.63;;;8.20;;
5191;SDS011;2615;44.524;11.284;2024-03-08T14:25:23;13.00;;;8.47;;
5191;SDS011;2615;44.524;11.284;2024-03-08T14:27:52;14.43;;;9.03;;
5191;SDS011;2615;44.524;11.284;2024-03-08T14:30:25;27.10;;;9.43;;
5191;SDS011;2615;44.524;11.284;2024-03-08T14:33:07;14.37;;;8.57;;
5191;SDS011;2615;44.524;11.284;2024-03-08T14:35:36;12.30;;;8.93;;
5191;SDS011;2615;44.524;11.284;2024-03-08T14:38:06;14.53;;;9.20;;
5191;SDS011;2615;44.524;11.284;2024-03-08T14:40:35;16.60;;;8.93;;
5191;SDS011;2615;44.524;11.284;2024-03-08T14:43:04;11.23;;;7.77;;
5191;SDS011;2615;44.524;11.284;2024-03-08T14:45:32;13.27;;;8.90;;
5191;SDS011;2615;44.524;11.284;2024-03-08T14:48:01;14.90;;;9.70;;
5191;SDS011;2615;44.524;11.284;2024-03-08T14:50:31;11.90;;;7.67;;
5191;SDS011;2615;44.524;11.284;2024-03-08T14:52:59;16.60;;;9.47;;
5191;SDS011;2615;44.524;11.284;2024-03-08T14:55:34;13.77;;;8.57;;
5191;SDS011;2615;44.524;11.284;2024-03-08T14:58:02;9.30;;;7.80;;
5191;SDS011;2615;44.524;11.284;2024-03-08T15:00:31;16.80;;;8.60;;
5191;SDS011;2615;44.524;11.284;2024-03-08T15:03:01;16.90;;;8.40;;
5191;SDS011;2615;44.524;11.284;2024-03-08T15:05:31;11.97;;;7.90;;